sensor_id;sensor_type;location;lat;lon;timestamp;P1;durP1;ratioP1;P2;durP2;ratioP2
80926;SDS011;70385;44.538;18.532;2024-03-08T00:00:08;59.53;;;32.50;;
80926;SDS011;70385;44.538;18.532;2024-03-08T00:02:40;86.38;;;41.22;;
80926;SDS011;70385;44.538;18.532;2024-03-08T00:05:10;75.95;;;37.17;;
80926;SDS011;70385;44.538;18.532;2024-03-08T00:07:36;77.82;;;37.85;;
80926;SDS011;70385;44.538;18.532;2024-03-08T00:10:06;81.32;;;42.28;;
80926;SDS011;70385;44.538;18.532;2024-03-08T00:12:41;80.93;;;41.80;;
80926;SDS011;70385;44.538;18.532;2024-03-08T00:15:08;81.93;;;42.63;;
80926;SDS011;70385;44.538;18.532;2024-03-08T00:17:36;76.50;;;40.92;;
80926;SDS011;70385;44.538;18.532;2024-03-08T00:20:05;67.65;;;33.85;;
80926;SDS011;70385;44.538;18.532;2024-03-08T00:22:35;74.95;;;37.80;;
80926;SDS011;70385;44.538;18.532;2024-03-08T00:25:04;76.13;;;37.15;;
80926;SDS011;70385;44.538;18.532;2024-03-08T00:27:37;70.40;;;35.70;;
80926;SDS011;70385;44.538;18.532;2024-03-08T00:30:08;65.13;;;35.33;;
80926;SDS011;70385;44.538;18.532;2024-03-08T00:32:40;63.85;;;34.10;;
80926;SDS011;70385;44.538;18.532;2024-03-08T00:35:06;67.00;;;34.50;;
80926;SDS011;70385;44.538;18.532;2024-03-08T00:37:34;78.93;;;35.22;;
80926;SDS011;70385;44.538;18.532;2024-03-08T00:40:02;74.45;;;35.25;;
80926;SDS011;70385;44.538;18.532;2024-03-08T00:42:30;72.90;;;35.65;;
80926;SDS011;70385;44.538;18.532;2024-03-08T00:44:56;75.28;;;34.88;;
80926;SDS011;70385;44.538;18.532;2024-03-08T00:47:24;68.15;;;35.30;;
80926;SDS011;70385;44.538;18.532;2024-03-08T00:49:51;69.68;;;36.83;;
80926;SDS011;70385;44.538;18.532;2024-03-08T00:52:20;81.90;;;40.17;;
80926;SDS011;70385;44.538;18.532;2024-03-08T00:54:49;84.55;;;37.78;;
80926;SDS011;70385;44.538;18.532;2024-03-08T00:57:16;74.68;;;39.10;;
80926;SDS011;70385;44.538;18.532;2024-03-08T00:59:44;79.50;;;41.00;;
80926;SDS011;70385;44.538;18.532;2024-03-08T01:02:14;76.40;;;40.28;;
80926;SDS011;70385;44.538;18.532;2024-03-08T01:04:42;82.55;;;39.58;;
80926;SDS011;70385;44.538;18.532;2024-03-08T01:07:10;78.47;;;37.30;;
80926;SDS011;70385;44.538;18.532;2024-03-08T01:09:37;74.35;;;36.67;;
80926;SDS011;70385;44.538;18.532;2024-03-08T01:12:05;80.38;;;38.10;;
80926;SDS011;70385;44.538;18.532;2024-03-08T01:14:34;75.07;;;39.17;;
80926;SDS011;70385;44.538;18.532;2024-03-08T01:58:52;52.97;;;29.75;;
80926;SDS011;70385;44.538;18.532;2024-03-08T02:01:19;54.53;;;29.23;;
80926;SDS011;70385;44.538;18.532;2024-03-08T02:03:45;61.97;;;32.80;;
80926;SDS011;70385;44.538;18.532;2024-03-08T02:06:12;57.10;;;31.05;;
80926;SDS011;70385;44.538;18.532;2024-03-08T02:08:44;51.67;;;29.00;;
80926;SDS011;70385;44.538;18.532;2024-03-08T02:11:11;53.78;;;30.63;;
80926;SDS011;70385;44.538;18.532;2024-03-08T02:13:37;53.38;;;29.00;;
80926;SDS011;70385;44.538;18.532;2024-03-08T02:16:03;55.90;;;29.30;;
80926;SDS011;70385;44.538;18.532;2024-03-08T02:18:30;52.85;;;27.58;;
80926;SDS011;70385;44.538;18.532;2024-03-08T02:21:00;53.95;;;28.63;;
80926;SDS011;70385;44.538;18.532;2024-03-08T02:23:30;53.13;;;28.35;;
80926;SDS011;70385;44.538;18.532;2024-03-08T02:25:57;58.05;;;29.50;;
80926;SDS011;70385;44.538;18.532;2024-03-08T02:28:23;53.15;;;28.05;;
80926;SDS011;70385;44.538;18.532;2024-03-08T02:30:54;54.20;;;27.83;;
80926;SDS011;70385;44.538;18.532;2024-03-08T02:33:21;50.70;;;26.02;;
80926;SDS011;70385;44.538;18.532;2024-03-08T02:35:48;48.83;;;26.50;;
80926;SDS011;70385;44.538;18.532;2024-03-08T02:38:16;50.90;;;27.55;;
80926;SDS011;70385;44.538;18.532;2024-03-08T02:40:44;50.15;;;26.63;;
80926;SDS011;70385;44.538;18.532;2024-03-08T02:43:14;47.25;;;26.33;;
80926;SDS011;70385;44.538;18.532;2024-03-08T02:45:45;45.88;;;26.75;;
80926;SDS011;70385;44.538;18.532;2024-03-08T02:48:16;50.38;;;27.38;;
80926;SDS011;70385;44.538;18.532;2024-03-08T02:50:42;48.17;;;26.67;;
80926;SDS011;70385;44.538;18.532;2024-03-08T02:53:08;53.00;;;28.08;;
80926;SDS011;70385;44.538;18.532;2024-03-08T02:55:36;52.83;;;27.27;;
80926;SDS011;70385;44.538;18.532;2024-03-08T02:58:03;52.97;;;29.40;;
80926;SDS011;70385;44.538;18.532;2024-03-08T03:00:29;55.92;;;30.45;;
80926;SDS011;70385;44.538;18.532;2024-03-08T03:02:56;60.58;;;31.38;;
80926;SDS011;70385;44.538;18.532;2024-03-08T03:05:23;54.50;;;30.17;;
80926;SDS011;70385;44.538;18.532;2024-03-08T03:07:49;59.15;;;30.77;;
80926;SDS011;70385;44.538;18.532;2024-03-08T03:10:16;63.63;;;31.02;;
80926;SDS011;70385;44.538;18.532;2024-03-08T03:12:42;63.17;;;33.58;;
80926;SDS011;70385;44.538;18.532;2024-03-08T03:15:10;52.42;;;29.65;;
80926;SDS011;70385;44.538;18.532;2024-03-08T03:17:37;57.88;;;30.75;;
80926;SDS011;70385;44.538;18.532;2024-03-08T03:20:04;59.30;;;31.73;;
80926;SDS011;70385;44.538;18.532;2024-03-08T03:22:39;60.35;;;32.35;;
80926;SDS011;70385;44.538;18.532;2024-03-08T03:25:06;58.83;;;33.20;;
80926;SDS011;70385;44.538;18.532;2024-03-08T03:27:34;67.32;;;34.25;;
80926;SDS011;70385;44.538;18.532;2024-03-08T03:30:01;65.55;;;30.98;;
80926;SDS011;70385;44.538;18.532;2024-03-08T03:32:49;66.03;;;33.45;;
80926;SDS011;70385;44.538;18.532;2024-03-08T03:35:19;60.05;;;31.40;;
80926;SDS011;70385;44.538;18.532;2024-03-08T03:37:49;68.80;;;32.40;;
80926;SDS011;70385;44.538;18.532;2024-03-08T03:40:47;72.93;;;32.63;;
80926;SDS011;70385;44.538;18.532;2024-03-08T03:43:13;63.25;;;32.72;;
80926;SDS011;70385;44.538;18.532;2024-03-08T03:45:39;64.72;;;32.58;;
80926;SDS011;70385;44.538;18.532;2024-03-08T03:48:06;63.92;;;33.05;;
80926;SDS011;70385;44.538;18.532;2024-03-08T03:50:36;55.22;;;32.25;;
80926;SDS011;70385;44.538;18.532;2024-03-08T03:53:02;54.60;;;30.05;;
80926;SDS011;70385;44.538;18.532;2024-03-08T03:55:28;51.95;;;30.42;;
80926;SDS011;70385;44.538;18.532;2024-03-08T03:57:54;43.47;;;25.58;;
80926;SDS011;70385;44.538;18.532;2024-03-08T04:00:21;55.38;;;29.55;;
80926;SDS011;70385;44.538;18.532;2024-03-08T04:02:46;54.40;;;28.80;;
80926;SDS011;70385;44.538;18.532;2024-03-08T04:05:12;43.08;;;25.98;;
80926;SDS011;70385;44.538;18.532;2024-03-08T04:07:38;53.78;;;27.88;;
80926;SDS011;70385;44.538;18.532;2024-03-08T04:10:09;49.50;;;28.35;;
80926;SDS011;70385;44.538;18.532;2024-03-08T04:12:37;52.95;;;28.23;;
80926;SDS011;70385;44.538;18.532;2024-03-08T04:15:04;52.78;;;28.10;;
80926;SDS011;70385;44.538;18.532;2024-03-08T04:17:34;55.85;;;29.65;;
80926;SDS011;70385;44.538;18.532;2024-03-08T04:20:06;56.30;;;29.27;;
80926;SDS011;70385;44.538;18.532;2024-03-08T04:22:38;59.65;;;29.00;;
80926;SDS011;70385;44.538;18.532;2024-03-08T04:25:04;58.65;;;30.75;;
80926;SDS011;70385;44.538;18.532;2024-03-08T04:27:34;60.03;;;31.40;;
80926;SDS011;70385;44.538;18.532;2024-03-08T04:30:01;60.45;;;30.27;;
80926;SDS011;70385;44.538;18.532;2024-03-08T04:32:28;60.67;;;33.50;;
80926;SDS011;70385;44.538;18.532;2024-03-08T04:34:56;60.67;;;33.55;;
80926;SDS011;70385;44.538;18.532;2024-03-08T04:37:23;65.93;;;35.78;;
80926;SDS011;70385;44.538;18.532;2024-03-08T04:39:50;59.70;;;33.30;;
80926;SDS011;70385;44.538;18.532;2024-03-08T04:42:17;60.03;;;32.83;;
80926;SDS011;70385;44.538;18.532;2024-03-08T04:44:43;64.95;;;35.47;;
80926;SDS011;70385;44.538;18.532;2024-03-08T04:47:11;72.50;;;37.58;;
80926;SDS011;70385;44.538;18.532;2024-03-08T04:49:38;70.97;;;36.90;;
80926;SDS011;70385;44.538;18.532;2024-03-08T04:52:04;76.68;;;37.28;;
80926;SDS011;70385;44.538;18.532;2024-03-08T04:54:32;84.72;;;42.58;;
80926;SDS011;70385;44.538;18.532;2024-03-08T04:56:58;86.82;;;41.00;;
80926;SDS011;70385;44.538;18.532;2024-03-08T04:59:27;92.80;;;44.60;;
80926;SDS011;70385;44.538;18.532;2024-03-08T05:01:56;125.43;;;52.97;;
80926;SDS011;70385;44.538;18.532;2024-03-08T05:04:22;121.15;;;56.30;;
80926;SDS011;70385;44.538;18.532;2024-03-08T05:06:49;108.00;;;53.45;;
80926;SDS011;70385;44.538;18.532;2024-03-08T05:09:14;126.45;;;54.67;;
80926;SDS011;70385;44.538;18.532;2024-03-08T05:11:41;215.05;;;100.93;;
80926;SDS011;70385;44.538;18.532;2024-03-08T05:14:09;169.63;;;86.13;;
80926;SDS011;70385;44.538;18.532;2024-03-08T05:16:43;135.75;;;67.28;;
80926;SDS011;70385;44.538;18.532;2024-03-08T05:19:16;127.90;;;57.72;;
80926;SDS011;70385;44.538;18.532;2024-03-08T05:21:43;118.68;;;58.47;;
80926;SDS011;70385;44.538;18.532;2024-03-08T05:24:09;108.63;;;53.03;;
80926;SDS011;70385;44.538;18.532;2024-03-08T05:26:36;67.28;;;35.65;;
80926;SDS011;70385;44.538;18.532;2024-03-08T05:29:03;72.82;;;36.97;;
80926;SDS011;70385;44.538;18.532;2024-03-08T05:31:29;100.72;;;48.85;;
80926;SDS011;70385;44.538;18.532;2024-03-08T05:34:01;89.25;;;45.42;;
80926;SDS011;70385;44.538;18.532;2024-03-08T05:36:27;94.00;;;47.88;;
80926;SDS011;70385;44.538;18.532;2024-03-08T05:38:53;99.63;;;46.30;;
80926;SDS011;70385;44.538;18.532;2024-03-08T05:41:20;88.97;;;42.50;;
80926;SDS011;70385;44.538;18.532;2024-03-08T05:43:46;75.80;;;39.15;;
80926;SDS011;70385;44.538;18.532;2024-03-08T05:46:15;107.38;;;51.72;;
80926;SDS011;70385;44.538;18.532;2024-03-08T05:48:43;141.85;;;63.85;;
80926;SDS011;70385;44.538;18.532;2024-03-08T05:51:09;150.35;;;67.60;;
80926;SDS011;70385;44.538;18.532;2024-03-08T05:53:36;115.88;;;55.75;;
80926;SDS011;70385;44.538;18.532;2024-03-08T05:56:02;120.13;;;58.33;;
80926;SDS011;70385;44.538;18.532;2024-03-08T05:58:28;129.88;;;59.85;;
80926;SDS011;70385;44.538;18.532;2024-03-08T06:00:57;202.10;;;102.00;;
80926;SDS011;70385;44.538;18.532;2024-03-08T06:03:24;151.23;;;80.57;;
80926;SDS011;70385;44.538;18.532;2024-03-08T06:05:50;168.13;;;83.07;;
80926;SDS011;70385;44.538;18.532;2024-03-08T06:08:16;144.35;;;76.05;;
80926;SDS011;70385;44.538;18.532;2024-03-08T06:10:42;150.20;;;74.32;;
80926;SDS011;70385;44.538;18.532;2024-03-08T06:13:08;142.43;;;69.43;;
80926;SDS011;70385;44.538;18.532;2024-03-08T06:15:37;133.88;;;65.43;;
80926;SDS011;70385;44.538;18.532;2024-03-08T06:18:03;153.68;;;75.90;;
80926;SDS011;70385;44.538;18.532;2024-03-08T06:20:31;144.95;;;69.78;;
80926;SDS011;70385;44.538;18.532;2024-03-08T06:23:00;141.43;;;67.03;;
80926;SDS011;70385;44.538;18.532;2024-03-08T06:25:26;147.80;;;71.75;;
80926;SDS011;70385;44.538;18.532;2024-03-08T06:27:57;133.00;;;66.15;;
80926;SDS011;70385;44.538;18.532;2024-03-08T06:30:26;88.30;;;44.47;;
80926;SDS011;70385;44.538;18.532;2024-03-08T06:32:52;114.13;;;54.97;;
80926;SDS011;70385;44.538;18.532;2024-03-08T06:35:18;111.07;;;56.20;;
80926;SDS011;70385;44.538;18.532;2024-03-08T06:37:51;92.97;;;48.95;;
80926;SDS011;70385;44.538;18.532;2024-03-08T06:40:17;102.95;;;51.13;;
80926;SDS011;70385;44.538;18.532;2024-03-08T06:42:44;105.78;;;50.00;;
80926;SDS011;70385;44.538;18.532;2024-03-08T06:45:10;85.45;;;43.63;;
80926;SDS011;70385;44.538;18.532;2024-03-08T06:47:37;91.50;;;48.50;;
80926;SDS011;70385;44.538;18.532;2024-03-08T06:50:03;95.22;;;47.05;;
80926;SDS011;70385;44.538;18.532;2024-03-08T06:52:31;89.50;;;46.05;;
80926;SDS011;70385;44.538;18.532;2024-03-08T06:54:57;85.20;;;42.83;;
80926;SDS011;70385;44.538;18.532;2024-03-08T06:57:26;79.30;;;42.50;;
80926;SDS011;70385;44.538;18.532;2024-03-08T06:59:54;73.45;;;39.35;;
80926;SDS011;70385;44.538;18.532;2024-03-08T07:02:22;75.05;;;38.50;;
80926;SDS011;70385;44.538;18.532;2024-03-08T07:04:50;74.60;;;36.78;;
80926;SDS011;70385;44.538;18.532;2024-03-08T07:07:22;84.20;;;39.45;;
80926;SDS011;70385;44.538;18.532;2024-03-08T07:09:48;84.07;;;44.40;;
80926;SDS011;70385;44.538;18.532;2024-03-08T07:12:14;84.80;;;44.72;;
80926;SDS011;70385;44.538;18.532;2024-03-08T07:14:44;70.50;;;38.83;;
80926;SDS011;70385;44.538;18.532;2024-03-08T07:17:11;63.67;;;34.60;;
80926;SDS011;70385;44.538;18.532;2024-03-08T07:19:38;63.55;;;32.65;;
80926;SDS011;70385;44.538;18.532;2024-03-08T07:22:04;61.53;;;31.30;;
80926;SDS011;70385;44.538;18.532;2024-03-08T07:24:36;72.10;;;36.15;;
80926;SDS011;70385;44.538;18.532;2024-03-08T07:27:03;76.80;;;38.97;;
80926;SDS011;70385;44.538;18.532;2024-03-08T07:29:30;82.18;;;39.45;;
80926;SDS011;70385;44.538;18.532;2024-03-08T07:31:59;93.07;;;46.97;;
80926;SDS011;70385;44.538;18.532;2024-03-08T07:34:28;81.30;;;40.65;;
80926;SDS011;70385;44.538;18.532;2024-03-08T07:36:58;76.65;;;37.38;;
80926;SDS011;70385;44.538;18.532;2024-03-08T07:39:29;84.55;;;42.63;;
80926;SDS011;70385;44.538;18.532;2024-03-08T07:41:55;92.10;;;45.28;;
80926;SDS011;70385;44.538;18.532;2024-03-08T07:44:21;80.45;;;42.35;;
80926;SDS011;70385;44.538;18.532;2024-03-08T07:46:50;105.32;;;48.90;;
80926;SDS011;70385;44.538;18.532;2024-03-08T07:49:17;102.60;;;46.78;;
80926;SDS011;70385;44.538;18.532;2024-03-08T07:51:43;86.90;;;43.08;;
80926;SDS011;70385;44.538;18.532;2024-03-08T07:54:09;104.85;;;47.97;;
80926;SDS011;70385;44.538;18.532;2024-03-08T07:56:39;99.10;;;44.63;;
80926;SDS011;70385;44.538;18.532;2024-03-08T07:59:05;92.95;;;44.25;;
80926;SDS011;70385;44.538;18.532;2024-03-08T08:01:32;85.55;;;41.22;;
80926;SDS011;70385;44.538;18.532;2024-03-08T08:03:59;93.50;;;46.03;;
80926;SDS011;70385;44.538;18.532;2024-03-08T08:06:26;91.85;;;43.33;;
80926;SDS011;70385;44.538;18.532;2024-03-08T08:09:00;77.78;;;40.42;;
80926;SDS011;70385;44.538;18.532;2024-03-08T08:11:28;70.13;;;34.63;;
80926;SDS011;70385;44.538;18.532;2024-03-08T08:13:54;61.60;;;34.47;;
80926;SDS011;70385;44.538;18.532;2024-03-08T08:16:26;69.32;;;35.33;;
80926;SDS011;70385;44.538;18.532;2024-03-08T08:18:54;66.78;;;34.90;;
80926;SDS011;70385;44.538;18.532;2024-03-08T08:21:22;67.10;;;35.08;;
80926;SDS011;70385;44.538;18.532;2024-03-08T08:23:51;60.40;;;32.65;;
80926;SDS011;70385;44.538;18.532;2024-03-08T08:26:17;53.85;;;30.08;;
80926;SDS011;70385;44.538;18.532;2024-03-08T08:28:44;48.55;;;26.88;;
80926;SDS011;70385;44.538;18.532;2024-03-08T08:31:11;61.22;;;29.17;;
80926;SDS011;70385;44.538;18.532;2024-03-08T08:33:38;47.97;;;27.48;;
80926;SDS011;70385;44.538;18.532;2024-03-08T08:36:05;46.90;;;25.52;;
80926;SDS011;70385;44.538;18.532;2024-03-08T08:38:32;44.05;;;24.70;;
80926;SDS011;70385;44.538;18.532;2024-03-08T08:40:58;43.28;;;25.10;;
80926;SDS011;70385;44.538;18.532;2024-03-08T08:43:25;47.42;;;25.58;;
80926;SDS011;70385;44.538;18.532;2024-03-08T08:48:43;46.67;;;24.65;;
80926;SDS011;70385;44.538;18.532;2024-03-08T08:51:11;49.00;;;26.60;;
80926;SDS011;70385;44.538;18.532;2024-03-08T08:53:40;46.67;;;26.02;;
80926;SDS011;70385;44.538;18.532;2024-03-08T08:56:09;48.35;;;26.05;;
80926;SDS011;70385;44.538;18.532;2024-03-08T08:58:44;45.25;;;24.58;;
80926;SDS011;70385;44.538;18.532;2024-03-08T09:01:10;47.08;;;25.85;;
80926;SDS011;70385;44.538;18.532;2024-03-08T09:03:37;43.83;;;25.88;;
80926;SDS011;70385;44.538;18.532;2024-03-08T09:06:07;50.38;;;29.77;;
80926;SDS011;70385;44.538;18.532;2024-03-08T09:08:37;52.28;;;27.73;;
80926;SDS011;70385;44.538;18.532;2024-03-08T09:11:06;53.00;;;28.23;;
80926;SDS011;70385;44.538;18.532;2024-03-08T09:13:32;43.72;;;24.10;;
80926;SDS011;70385;44.538;18.532;2024-03-08T09:15:59;46.35;;;24.30;;
80926;SDS011;70385;44.538;18.532;2024-03-08T09:18:28;46.85;;;26.40;;
80926;SDS011;70385;44.538;18.532;2024-03-08T09:20:54;45.20;;;25.25;;
80926;SDS011;70385;44.538;18.532;2024-03-08T09:23:23;50.00;;;25.20;;
80926;SDS011;70385;44.538;18.532;2024-03-08T09:25:51;43.10;;;25.13;;
80926;SDS011;70385;44.538;18.532;2024-03-08T09:28:17;48.78;;;25.70;;
80926;SDS011;70385;44.538;18.532;2024-03-08T09:30:43;53.90;;;26.17;;
80926;SDS011;70385;44.538;18.532;2024-03-08T09:33:09;53.30;;;27.30;;
80926;SDS011;70385;44.538;18.532;2024-03-08T09:35:36;45.33;;;24.27;;
80926;SDS011;70385;44.538;18.532;2024-03-08T09:38:02;40.33;;;23.45;;
80926;SDS011;70385;44.538;18.532;2024-03-08T09:40:30;38.03;;;22.55;;
80926;SDS011;70385;44.538;18.532;2024-03-08T09:42:55;46.33;;;22.27;;
80926;SDS011;70385;44.538;18.532;2024-03-08T09:45:22;35.03;;;21.17;;
80926;SDS011;70385;44.538;18.532;2024-03-08T09:47:50;40.20;;;22.83;;
80926;SDS011;70385;44.538;18.532;2024-03-08T09:50:16;37.33;;;21.90;;
80926;SDS011;70385;44.538;18.532;2024-03-08T09:52:43;45.10;;;23.75;;
80926;SDS011;70385;44.538;18.532;2024-03-08T09:55:13;34.33;;;19.48;;
80926;SDS011;70385;44.538;18.532;2024-03-08T09:57:42;39.55;;;18.15;;
80926;SDS011;70385;44.538;18.532;2024-03-08T10:00:29;30.90;;;18.70;;
80926;SDS011;70385;44.538;18.532;2024-03-08T10:03:00;33.22;;;18.95;;
80926;SDS011;70385;44.538;18.532;2024-03-08T10:05:29;34.08;;;19.77;;
80926;SDS011;70385;44.538;18.532;2024-03-08T10:10:45;33.75;;;20.42;;
80926;SDS011;70385;44.538;18.532;2024-03-08T10:13:24;37.42;;;19.00;;
80926;SDS011;70385;44.538;18.532;2024-03-08T10:15:53;36.17;;;19.08;;
80926;SDS011;70385;44.538;18.532;2024-03-08T10:18:19;36.10;;;19.17;;
80926;SDS011;70385;44.538;18.532;2024-03-08T10:20:47;37.17;;;21.10;;
80926;SDS011;70385;44.538;18.532;2024-03-08T10:23:29;37.72;;;20.75;;
80926;SDS011;70385;44.538;18.532;2024-03-08T10:26:16;39.75;;;20.35;;
80926;SDS011;70385;44.538;18.532;2024-03-08T10:28:52;39.65;;;20.70;;
80926;SDS011;70385;44.538;18.532;2024-03-08T10:31:20;36.25;;;21.05;;
80926;SDS011;70385;44.538;18.532;2024-03-08T10:33:49;47.80;;;21.60;;
80926;SDS011;70385;44.538;18.532;2024-03-08T10:36:16;44.15;;;23.35;;
80926;SDS011;70385;44.538;18.532;2024-03-08T10:38:44;42.47;;;21.70;;
80926;SDS011;70385;44.538;18.532;2024-03-08T10:41:12;36.80;;;20.50;;
80926;SDS011;70385;44.538;18.532;2024-03-08T10:44:00;35.33;;;19.73;;
80926;SDS011;70385;44.538;18.532;2024-03-08T10:46:41;36.70;;;20.23;;
80926;SDS011;70385;44.538;18.532;2024-03-08T10:49:16;36.20;;;20.13;;
80926;SDS011;70385;44.538;18.532;2024-03-08T10:51:43;38.58;;;21.00;;
80926;SDS011;70385;44.538;18.532;2024-03-08T10:54:11;34.72;;;19.50;;
80926;SDS011;70385;44.538;18.532;2024-03-08T10:56:38;42.55;;;22.92;;
80926;SDS011;70385;44.538;18.532;2024-03-08T10:59:05;46.75;;;21.38;;
80926;SDS011;70385;44.538;18.532;2024-03-08T11:01:35;38.80;;;22.42;;
80926;SDS011;70385;44.538;18.532;2024-03-08T11:04:06;37.53;;;20.67;;
80926;SDS011;70385;44.538;18.532;2024-03-08T11:14:51;42.33;;;21.85;;
80926;SDS011;70385;44.538;18.532;2024-03-08T11:20:25;35.40;;;20.75;;
80926;SDS011;70385;44.538;18.532;2024-03-08T11:22:51;40.90;;;20.83;;
80926;SDS011;70385;44.538;18.532;2024-03-08T11:28:19;49.17;;;24.08;;
80926;SDS011;70385;44.538;18.532;2024-03-08T11:30:47;57.53;;;25.67;;
80926;SDS011;70385;44.538;18.532;2024-03-08T11:33:30;58.95;;;26.33;;
80926;SDS011;70385;44.538;18.532;2024-03-08T11:38:53;56.28;;;26.98;;
80926;SDS011;70385;44.538;18.532;2024-03-08T11:41:23;50.80;;;25.52;;
80926;SDS011;70385;44.538;18.532;2024-03-08T11:44:04;61.72;;;28.60;;
80926;SDS011;70385;44.538;18.532;2024-03-08T11:46:31;73.47;;;29.35;;
80926;SDS011;70385;44.538;18.532;2024-03-08T11:48:57;50.20;;;24.33;;
80926;SDS011;70385;44.538;18.532;2024-03-08T11:51:23;62.03;;;25.95;;
80926;SDS011;70385;44.538;18.532;2024-03-08T11:53:51;98.40;;;36.65;;
80926;SDS011;70385;44.538;18.532;2024-03-08T11:56:19;111.88;;;40.83;;
80926;SDS011;70385;44.538;18.532;2024-03-08T11:58:55;113.25;;;42.53;;
80926;SDS011;70385;44.538;18.532;2024-03-08T12:01:22;132.80;;;45.13;;
80926;SDS011;70385;44.538;18.532;2024-03-08T12:03:55;127.05;;;44.72;;
80926;SDS011;70385;44.538;18.532;2024-03-08T12:08:52;117.25;;;41.70;;
80926;SDS011;70385;44.538;18.532;2024-03-08T12:11:20;115.38;;;37.80;;
80926;SDS011;70385;44.538;18.532;2024-03-08T12:13:49;116.13;;;42.75;;
80926;SDS011;70385;44.538;18.532;2024-03-08T12:16:19;111.32;;;40.40;;
80926;SDS011;70385;44.538;18.532;2024-03-08T12:18:47;117.70;;;42.17;;
80926;SDS011;70385;44.538;18.532;2024-03-08T12:21:14;131.75;;;44.67;;
80926;SDS011;70385;44.538;18.532;2024-03-08T12:23:42;147.77;;;48.00;;
80926;SDS011;70385;44.538;18.532;2024-03-08T12:26:33;128.65;;;42.03;;
80926;SDS011;70385;44.538;18.532;2024-03-08T12:32:05;116.65;;;39.63;;
80926;SDS011;70385;44.538;18.532;2024-03-08T12:34:36;125.55;;;41.95;;
80926;SDS011;70385;44.538;18.532;2024-03-08T12:37:03;145.57;;;45.17;;
80926;SDS011;70385;44.538;18.532;2024-03-08T12:39:32;121.63;;;42.28;;
80926;SDS011;70385;44.538;18.532;2024-03-08T12:41:58;107.40;;;39.83;;
80926;SDS011;70385;44.538;18.532;2024-03-08T12:44:25;107.78;;;38.63;;
80926;SDS011;70385;44.538;18.532;2024-03-08T12:46:56;102.18;;;37.20;;
80926;SDS011;70385;44.538;18.532;2024-03-08T12:49:24;105.43;;;39.45;;
80926;SDS011;70385;44.538;18.532;2024-03-08T12:51:52;96.07;;;35.28;;
80926;SDS011;70385;44.538;18.532;2024-03-08T12:54:21;102.93;;;37.83;;
80926;SDS011;70385;44.538;18.532;2024-03-08T12:56:48;98.30;;;34.65;;
80926;SDS011;70385;44.538;18.532;2024-03-08T12:59:15;84.20;;;33.75;;
80926;SDS011;70385;44.538;18.532;2024-03-08T13:01:41;89.20;;;34.50;;
80926;SDS011;70385;44.538;18.532;2024-03-08T13:04:09;81.75;;;34.78;;
80926;SDS011;70385;44.538;18.532;2024-03-08T13:06:36;83.40;;;33.72;;
80926;SDS011;70385;44.538;18.532;2024-03-08T13:09:04;81.00;;;34.47;;
80926;SDS011;70385;44.538;18.532;2024-03-08T13:11:31;82.82;;;33.85;;
80926;SDS011;70385;44.538;18.532;2024-03-08T13:14:02;86.13;;;35.25;;
80926;SDS011;70385;44.538;18.532;2024-03-08T13:16:29;109.47;;;38.50;;
80926;SDS011;70385;44.538;18.532;2024-03-08T13:18:55;95.50;;;38.05;;
80926;SDS011;70385;44.538;18.532;2024-03-08T13:21:22;95.43;;;39.25;;
80926;SDS011;70385;44.538;18.532;2024-03-08T13:23:49;92.32;;;36.47;;
80926;SDS011;70385;44.538;18.532;2024-03-08T13:26:16;98.72;;;37.90;;
80926;SDS011;70385;44.538;18.532;2024-03-08T13:28:46;104.28;;;40.42;;
80926;SDS011;70385;44.538;18.532;2024-03-08T13:31:14;103.07;;;39.95;;
80926;SDS011;70385;44.538;18.532;2024-03-08T13:33:40;100.18;;;39.35;;
80926;SDS011;70385;44.538;18.532;2024-03-08T13:36:11;99.47;;;37.85;;
80926;SDS011;70385;44.538;18.532;2024-03-08T13:38:42;99.30;;;36.17;;
80926;SDS011;70385;44.538;18.532;2024-03-08T13:41:09;91.15;;;34.83;;
80926;SDS011;70385;44.538;18.532;2024-03-08T13:43:36;84.00;;;31.20;;
80926;SDS011;70385;44.538;18.532;2024-03-08T13:46:02;74.80;;;30.63;;
80926;SDS011;70385;44.538;18.532;2024-03-08T13:48:29;80.05;;;33.50;;
80926;SDS011;70385;44.538;18.532;2024-03-08T13:50:56;84.20;;;31.65;;
80926;SDS011;70385;44.538;18.532;2024-03-08T13:53:23;76.13;;;30.83;;
80926;SDS011;70385;44.538;18.532;2024-03-08T13:55:49;75.25;;;31.65;;
80926;SDS011;70385;44.538;18.532;2024-03-08T13:58:16;75.90;;;29.60;;
80926;SDS011;70385;44.538;18.532;2024-03-08T14:00:42;74.93;;;31.02;;
80926;SDS011;70385;44.538;18.532;2024-03-08T14:03:09;73.72;;;32.53;;
80926;SDS011;70385;44.538;18.532;2024-03-08T14:05:40;80.97;;;30.17;;
80926;SDS011;70385;44.538;18.532;2024-03-08T14:08:08;78.32;;;34.10;;
80926;SDS011;70385;44.538;18.532;2024-03-08T14:10:34;84.68;;;32.47;;
80926;SDS011;70385;44.538;18.532;2024-03-08T14:13:03;79.10;;;31.83;;
80926;SDS011;70385;44.538;18.532;2024-03-08T14:15:32;70.00;;;30.85;;
80926;SDS011;70385;44.538;18.532;2024-03-08T14:17:59;70.95;;;30.08;;
80926;SDS011;70385;44.538;18.532;2024-03-08T14:20:26;70.07;;;30.65;;
80926;SDS011;70385;44.538;18.532;2024-03-08T14:22:55;55.28;;;24.88;;
80926;SDS011;70385;44.538;18.532;2024-03-08T14:25:22;51.60;;;24.30;;
80926;SDS011;70385;44.538;18.532;2024-03-08T14:27:49;51.08;;;22.17;;
80926;SDS011;70385;44.538;18.532;2024-03-08T14:30:19;54.70;;;25.63;;
80926;SDS011;70385;44.538;18.532;2024-03-08T14:33:04;57.42;;;24.95;;
80926;SDS011;70385;44.538;18.532;2024-03-08T14:35:31;51.88;;;21.90;;
80926;SDS011;70385;44.538;18.532;2024-03-08T14:37:57;43.28;;;22.05;;
80926;SDS011;70385;44.538;18.532;2024-03-08T14:40:26;49.70;;;20.67;;
80926;SDS011;70385;44.538;18.532;2024-03-08T14:42:55;49.67;;;21.88;;
80926;SDS011;70385;44.538;18.532;2024-03-08T14:45:21;47.25;;;22.70;;
80926;SDS011;70385;44.538;18.532;2024-03-08T14:47:49;44.50;;;21.75;;
80926;SDS011;70385;44.538;18.532;2024-03-08T14:50:19;40.00;;;21.42;;
80926;SDS011;70385;44.538;18.532;2024-03-08T14:52:46;49.85;;;23.60;;
80926;SDS011;70385;44.538;18.532;2024-03-08T14:55:16;52.58;;;24.92;;
80926;SDS011;70385;44.538;18.532;2024-03-08T14:57:42;46.47;;;23.23;;
80926;SDS011;70385;44.538;18.532;2024-03-08T15:00:12;46.35;;;23.13;;
80926;SDS011;70385;44.538;18.532;2024-03-08T15:03:14;64.00;;;28.27;;
80926;SDS011;70385;44.538;18.532;2024-03-08T15:05:41;52.10;;;24.98;;
80926;SDS011;70385;44.538;18.532;2024-03-08T15:08:14;53.78;;;25.25;;
80926;SDS011;70385;44.538;18.532;2024-03-08T15:10:45;56.03;;;25.73;;
80926;SDS011;70385;44.538;18.532;2024-03-08T15:13:12;55.10;;;25.20;;
80926;SDS011;70385;44.538;18.532;2024-03-08T15:15:46;49.58;;;24.15;;
80926;SDS011;70385;44.538;18.532;2024-03-08T15:18:12;47.45;;;21.98;;
80926;SDS011;70385;44.538;18.532;2024-03-08T15:20:39;45.50;;;20.33;;
80926;SDS011;70385;44.538;18.532;2024-03-08T15:23:06;25.75;;;15.57;;